sensor_id;sensor_type;location;lat;lon;timestamp;P1;durP1;ratioP1;P2;durP2;ratioP2
35715;SDS011;21840;44.920;8.616;2022-10-28T00:00:15;54.22;;;28.85;;
35715;SDS011;21840;44.920;8.616;2022-10-28T00:02:41;63.90;;;29.90;;
35715;SDS011;21840;44.920;8.616;2022-10-28T00:05:07;56.97;;;29.05;;
35715;SDS011;21840;44.920;8.616;2022-10-28T00:07:33;56.25;;;28.75;;
35715;SDS011;21840;44.920;8.616;2022-10-28T00:10:01;57.63;;;29.65;;
35715;SDS011;21840;44.920;8.616;2022-10-28T00:12:26;64.82;;;29.15;;
35715;SDS011;21840;44.920;8.616;2022-10-28T00:14:52;61.75;;;27.70;;
35715;SDS011;21840;44.920;8.616;2022-10-28T00:17:17;48.63;;;27.55;;
35715;SDS011;21840;44.920;8.616;2022-10-28T00:19:43;51.80;;;26.63;;
35715;SDS011;21840;44.920;8.616;2022-10-28T00:22:08;42.42;;;26.55;;
35715;SDS011;21840;44.920;8.616;2022-10-28T00:24:34;48.70;;;25.98;;
35715;SDS011;21840;44.920;8.616;2022-10-28T00:26:59;49.55;;;28.17;;
35715;SDS011;21840;44.920;8.616;2022-10-28T00:29:28;48.40;;;26.67;;
35715;SDS011;21840;44.920;8.616;2022-10-28T00:31:53;56.40;;;28.67;;
35715;SDS011;21840;44.920;8.616;2022-10-28T00:34:22;50.40;;;27.55;;
35715;SDS011;21840;44.920;8.616;2022-10-28T00:36:48;63.47;;;29.65;;
35715;SDS011;21840;44.920;8.616;2022-10-28T00:39:17;60.53;;;28.90;;
35715;SDS011;21840;44.920;8.616;2022-10-28T00:41:46;55.45;;;30.88;;
35715;SDS011;21840;44.920;8.616;2022-10-28T00:52:59;63.75;;;30.63;;
35715;SDS011;21840;44.920;8.616;2022-10-28T00:55:29;67.07;;;29.48;;
35715;SDS011;21840;44.920;8.616;2022-10-28T00:57:57;47.60;;;27.45;;
35715;SDS011;21840;44.920;8.616;2022-10-28T01:00:24;57.72;;;29.63;;
35715;SDS011;21840;44.920;8.616;2022-10-28T01:02:50;54.10;;;30.33;;
35715;SDS011;21840;44.920;8.616;2022-10-28T01:05:18;56.20;;;29.58;;
35715;SDS011;21840;44.920;8.616;2022-10-28T01:07:46;47.92;;;27.35;;
35715;SDS011;21840;44.920;8.616;2022-10-28T01:10:12;49.92;;;27.08;;
35715;SDS011;21840;44.920;8.616;2022-10-28T01:15:26;44.20;;;25.70;;
35715;SDS011;21840;44.920;8.616;2022-10-28T01:24:34;53.90;;;26.08;;
35715;SDS011;21840;44.920;8.616;2022-10-28T01:30:03;47.80;;;24.48;;
35715;SDS011;21840;44.920;8.616;2022-10-28T01:37:46;42.50;;;23.23;;
35715;SDS011;21840;44.920;8.616;2022-10-28T01:42:54;37.03;;;21.50;;
35715;SDS011;21840;44.920;8.616;2022-10-28T01:45:35;36.92;;;22.35;;
35715;SDS011;21840;44.920;8.616;2022-10-28T01:48:15;37.58;;;22.60;;
35715;SDS011;21840;44.920;8.616;2022-10-28T01:50:55;41.75;;;22.92;;
35715;SDS011;21840;44.920;8.616;2022-10-28T01:53:33;35.15;;;22.42;;
35715;SDS011;21840;44.920;8.616;2022-10-28T01:56:06;41.88;;;21.55;;
35715;SDS011;21840;44.920;8.616;2022-10-28T01:58:35;36.35;;;23.60;;
35715;SDS011;21840;44.920;8.616;2022-10-28T02:01:04;47.85;;;22.55;;
35715;SDS011;21840;44.920;8.616;2022-10-28T02:03:32;38.80;;;23.13;;
35715;SDS011;21840;44.920;8.616;2022-10-28T02:05:58;41.05;;;22.05;;
35715;SDS011;21840;44.920;8.616;2022-10-28T02:08:31;35.15;;;21.83;;
35715;SDS011;21840;44.920;8.616;2022-10-28T02:11:52;35.47;;;21.30;;
35715;SDS011;21840;44.920;8.616;2022-10-28T02:19:46;32.45;;;20.83;;
35715;SDS011;21840;44.920;8.616;2022-10-28T02:22:31;28.08;;;19.90;;
35715;SDS011;21840;44.920;8.616;2022-10-28T02:30:52;27.55;;;18.83;;
35715;SDS011;21840;44.920;8.616;2022-10-28T02:33:23;26.75;;;18.75;;
35715;SDS011;21840;44.920;8.616;2022-10-28T02:36:06;24.13;;;18.58;;
35715;SDS011;21840;44.920;8.616;2022-10-28T02:38:37;42.97;;;19.27;;
35715;SDS011;21840;44.920;8.616;2022-10-28T02:41:22;34.65;;;18.85;;
35715;SDS011;21840;44.920;8.616;2022-10-28T02:43:50;27.45;;;18.50;;
35715;SDS011;21840;44.920;8.616;2022-10-28T02:46:18;38.58;;;17.88;;
35715;SDS011;21840;44.920;8.616;2022-10-28T02:48:50;29.70;;;19.63;;
35715;SDS011;21840;44.920;8.616;2022-10-28T02:51:20;50.92;;;18.05;;
35715;SDS011;21840;44.920;8.616;2022-10-28T02:53:55;93.82;;;19.17;;
35715;SDS011;21840;44.920;8.616;2022-10-28T02:57:26;68.60;;;18.40;;
35715;SDS011;21840;44.920;8.616;2022-10-28T02:59:56;101.50;;;20.42;;
35715;SDS011;21840;44.920;8.616;2022-10-28T03:02:26;87.30;;;19.10;;
35715;SDS011;21840;44.920;8.616;2022-10-28T03:04:52;169.90;;;21.23;;
35715;SDS011;21840;44.920;8.616;2022-10-28T03:07:18;67.57;;;21.98;;
35715;SDS011;21840;44.920;8.616;2022-10-28T03:09:44;181.73;;;23.00;;
35715;SDS011;21840;44.920;8.616;2022-10-28T03:12:09;145.55;;;23.27;;
35715;SDS011;21840;44.920;8.616;2022-10-28T03:14:35;181.55;;;22.15;;
35715;SDS011;21840;44.920;8.616;2022-10-28T03:17:01;161.13;;;24.88;;
35715;SDS011;21840;44.920;8.616;2022-10-28T03:19:26;124.43;;;24.10;;
35715;SDS011;21840;44.920;8.616;2022-10-28T03:21:55;84.22;;;21.55;;
35715;SDS011;21840;44.920;8.616;2022-10-28T03:24:20;73.35;;;22.60;;
35715;SDS011;21840;44.920;8.616;2022-10-28T03:26:46;114.82;;;22.95;;
35715;SDS011;21840;44.920;8.616;2022-10-28T03:29:11;48.58;;;22.25;;
35715;SDS011;21840;44.920;8.616;2022-10-28T03:31:37;86.45;;;21.85;;
35715;SDS011;21840;44.920;8.616;2022-10-28T03:34:02;77.78;;;21.95;;
35715;SDS011;21840;44.920;8.616;2022-10-28T03:36:28;71.40;;;21.02;;
35715;SDS011;21840;44.920;8.616;2022-10-28T03:38:53;49.55;;;21.05;;
35715;SDS011;21840;44.920;8.616;2022-10-28T03:41:19;37.38;;;19.23;;
35715;SDS011;21840;44.920;8.616;2022-10-28T03:43:44;109.35;;;20.70;;
35715;SDS011;21840;44.920;8.616;2022-10-28T03:46:10;82.57;;;20.13;;
35715;SDS011;21840;44.920;8.616;2022-10-28T03:48:35;45.38;;;22.92;;
35715;SDS011;21840;44.920;8.616;2022-10-28T03:51:01;45.88;;;22.90;;
35715;SDS011;21840;44.920;8.616;2022-10-28T03:53:26;53.88;;;22.85;;
35715;SDS011;21840;44.920;8.616;2022-10-28T03:55:55;78.25;;;24.00;;
35715;SDS011;21840;44.920;8.616;2022-10-28T03:58:22;40.65;;;23.13;;
35715;SDS011;21840;44.920;8.616;2022-10-28T04:00:48;51.13;;;24.27;;
35715;SDS011;21840;44.920;8.616;2022-10-28T04:03:17;33.80;;;22.13;;
35715;SDS011;21840;44.920;8.616;2022-10-28T04:05:44;32.83;;;23.08;;
35715;SDS011;21840;44.920;8.616;2022-10-28T04:08:12;33.13;;;22.77;;
35715;SDS011;21840;44.920;8.616;2022-10-28T04:10:38;34.58;;;22.33;;
35715;SDS011;21840;44.920;8.616;2022-10-28T04:13:04;38.75;;;24.02;;
35715;SDS011;21840;44.920;8.616;2022-10-28T04:15:32;44.10;;;24.40;;
35715;SDS011;21840;44.920;8.616;2022-10-28T04:17:57;40.78;;;23.33;;
35715;SDS011;21840;44.920;8.616;2022-10-28T04:20:23;36.13;;;23.60;;
35715;SDS011;21840;44.920;8.616;2022-10-28T04:22:49;33.70;;;22.08;;
35715;SDS011;21840;44.920;8.616;2022-10-28T04:25:15;34.63;;;23.38;;
35715;SDS011;21840;44.920;8.616;2022-10-28T04:27:42;45.20;;;22.70;;
35715;SDS011;21840;44.920;8.616;2022-10-28T04:30:09;41.17;;;23.10;;
35715;SDS011;21840;44.920;8.616;2022-10-28T04:32:37;42.88;;;22.80;;
35715;SDS011;21840;44.920;8.616;2022-10-28T04:35:03;37.42;;;24.08;;
35715;SDS011;21840;44.920;8.616;2022-10-28T04:37:29;37.00;;;22.13;;
35715;SDS011;21840;44.920;8.616;2022-10-28T04:39:54;35.30;;;21.77;;
35715;SDS011;21840;44.920;8.616;2022-10-28T04:42:20;37.55;;;22.88;;
35715;SDS011;21840;44.920;8.616;2022-10-28T04:44:47;42.83;;;22.38;;
35715;SDS011;21840;44.920;8.616;2022-10-28T04:47:12;51.55;;;32.65;;
35715;SDS011;21840;44.920;8.616;2022-10-28T04:49:38;46.80;;;28.27;;
35715;SDS011;21840;44.920;8.616;2022-10-28T04:52:03;38.05;;;24.35;;
35715;SDS011;21840;44.920;8.616;2022-10-28T04:54:29;32.53;;;21.52;;
35715;SDS011;21840;44.920;8.616;2022-10-28T04:56:54;38.55;;;23.02;;
35715;SDS011;21840;44.920;8.616;2022-10-28T04:59:20;37.38;;;22.75;;
35715;SDS011;21840;44.920;8.616;2022-10-28T05:01:45;31.55;;;21.88;;
35715;SDS011;21840;44.920;8.616;2022-10-28T05:04:11;33.78;;;22.40;;
35715;SDS011;21840;44.920;8.616;2022-10-28T05:06:39;42.78;;;21.40;;
35715;SDS011;21840;44.920;8.616;2022-10-28T05:09:05;45.53;;;33.13;;
35715;SDS011;21840;44.920;8.616;2022-10-28T05:11:30;48.05;;;32.35;;
35715;SDS011;21840;44.920;8.616;2022-10-28T05:13:56;41.53;;;27.60;;
35715;SDS011;21840;44.920;8.616;2022-10-28T05:16:21;35.33;;;23.77;;
35715;SDS011;21840;44.920;8.616;2022-10-28T05:18:47;29.73;;;22.00;;
35715;SDS011;21840;44.920;8.616;2022-10-28T05:21:12;32.80;;;21.75;;
35715;SDS011;21840;44.920;8.616;2022-10-28T05:23:38;32.47;;;21.73;;
35715;SDS011;21840;44.920;8.616;2022-10-28T05:26:03;35.75;;;22.17;;
35715;SDS011;21840;44.920;8.616;2022-10-28T05:28:29;36.28;;;21.42;;
35715;SDS011;21840;44.920;8.616;2022-10-28T05:30:54;41.72;;;23.77;;
35715;SDS011;21840;44.920;8.616;2022-10-28T05:33:20;35.97;;;22.25;;
35715;SDS011;21840;44.920;8.616;2022-10-28T05:35:45;42.42;;;21.67;;
35715;SDS011;21840;44.920;8.616;2022-10-28T05:38:11;33.80;;;22.52;;
35715;SDS011;21840;44.920;8.616;2022-10-28T05:40:36;35.92;;;22.85;;
35715;SDS011;21840;44.920;8.616;2022-10-28T05:43:02;42.10;;;23.92;;
35715;SDS011;21840;44.920;8.616;2022-10-28T05:45:28;42.38;;;24.02;;
35715;SDS011;21840;44.920;8.616;2022-10-28T05:47:54;44.60;;;23.42;;
35715;SDS011;21840;44.920;8.616;2022-10-28T05:50:19;90.30;;;22.80;;
35715;SDS011;21840;44.920;8.616;2022-10-28T05:52:46;53.00;;;23.38;;
35715;SDS011;21840;44.920;8.616;2022-10-28T05:55:11;66.45;;;24.58;;
35715;SDS011;21840;44.920;8.616;2022-10-28T05:57:37;54.47;;;25.13;;
35715;SDS011;21840;44.920;8.616;2022-10-28T06:00:02;52.58;;;23.60;;
35715;SDS011;21840;44.920;8.616;2022-10-28T06:02:37;69.10;;;23.15;;
35715;SDS011;21840;44.920;8.616;2022-10-28T06:05:03;51.50;;;25.52;;
35715;SDS011;21840;44.920;8.616;2022-10-28T06:07:31;52.63;;;25.15;;
35715;SDS011;21840;44.920;8.616;2022-10-28T06:09:59;61.33;;;26.42;;
35715;SDS011;21840;44.920;8.616;2022-10-28T06:12:24;62.97;;;27.70;;
35715;SDS011;21840;44.920;8.616;2022-10-28T06:14:50;60.13;;;28.52;;
35715;SDS011;21840;44.920;8.616;2022-10-28T06:17:15;66.07;;;27.88;;
35715;SDS011;21840;44.920;8.616;2022-10-28T06:19:41;68.50;;;27.02;;
35715;SDS011;21840;44.920;8.616;2022-10-28T06:22:06;56.00;;;26.75;;
35715;SDS011;21840;44.920;8.616;2022-10-28T06:24:32;69.65;;;26.92;;
35715;SDS011;21840;44.920;8.616;2022-10-28T06:26:58;59.15;;;28.80;;
35715;SDS011;21840;44.920;8.616;2022-10-28T06:29:23;71.40;;;27.58;;
35715;SDS011;21840;44.920;8.616;2022-10-28T06:31:49;57.63;;;27.90;;
35715;SDS011;21840;44.920;8.616;2022-10-28T06:34:15;57.85;;;27.02;;
35715;SDS011;21840;44.920;8.616;2022-10-28T06:36:41;63.95;;;26.95;;
35715;SDS011;21840;44.920;8.616;2022-10-28T06:39:06;76.10;;;29.15;;
35715;SDS011;21840;44.920;8.616;2022-10-28T06:41:32;59.40;;;29.55;;
35715;SDS011;21840;44.920;8.616;2022-10-28T06:43:58;70.22;;;30.45;;
35715;SDS011;21840;44.920;8.616;2022-10-28T06:46:24;69.50;;;29.63;;
35715;SDS011;21840;44.920;8.616;2022-10-28T06:48:49;76.68;;;30.35;;
35715;SDS011;21840;44.920;8.616;2022-10-28T06:51:17;58.90;;;29.85;;
35715;SDS011;21840;44.920;8.616;2022-10-28T06:53:43;67.90;;;31.35;;
35715;SDS011;21840;44.920;8.616;2022-10-28T06:56:13;68.53;;;31.50;;
35715;SDS011;21840;44.920;8.616;2022-10-28T06:58:38;67.97;;;32.58;;
35715;SDS011;21840;44.920;8.616;2022-10-28T07:01:04;70.20;;;33.35;;
35715;SDS011;21840;44.920;8.616;2022-10-28T07:03:30;67.28;;;32.90;;
35715;SDS011;21840;44.920;8.616;2022-10-28T07:05:57;61.05;;;30.85;;
35715;SDS011;21840;44.920;8.616;2022-10-28T07:08:23;51.25;;;28.83;;
35715;SDS011;21840;44.920;8.616;2022-10-28T07:10:55;50.80;;;27.17;;
35715;SDS011;21840;44.920;8.616;2022-10-28T07:13:25;45.33;;;25.08;;
35715;SDS011;21840;44.920;8.616;2022-10-28T07:15:51;43.85;;;25.50;;
35715;SDS011;21840;44.920;8.616;2022-10-28T07:18:18;45.22;;;25.35;;
35715;SDS011;21840;44.920;8.616;2022-10-28T07:20:44;48.22;;;25.73;;
35715;SDS011;21840;44.920;8.616;2022-10-28T07:23:10;48.15;;;23.77;;
35715;SDS011;21840;44.920;8.616;2022-10-28T07:25:35;46.17;;;24.33;;
35715;SDS011;21840;44.920;8.616;2022-10-28T07:28:04;45.75;;;23.17;;
35715;SDS011;21840;44.920;8.616;2022-10-28T07:30:30;36.70;;;22.42;;
35715;SDS011;21840;44.920;8.616;2022-10-28T07:32:56;36.78;;;20.90;;
35715;SDS011;21840;44.920;8.616;2022-10-28T07:35:25;36.20;;;20.80;;
35715;SDS011;21840;44.920;8.616;2022-10-28T07:37:51;48.38;;;21.30;;
35715;SDS011;21840;44.920;8.616;2022-10-28T07:40:19;44.90;;;21.98;;
35715;SDS011;21840;44.920;8.616;2022-10-28T07:42:45;45.08;;;22.50;;
35715;SDS011;21840;44.920;8.616;2022-10-28T07:45:11;52.00;;;25.35;;
35715;SDS011;21840;44.920;8.616;2022-10-28T07:47:37;48.13;;;25.13;;
35715;SDS011;21840;44.920;8.616;2022-10-28T07:50:03;47.13;;;25.48;;
35715;SDS011;21840;44.920;8.616;2022-10-28T07:52:30;48.63;;;25.60;;
35715;SDS011;21840;44.920;8.616;2022-10-28T07:54:55;51.70;;;26.70;;
35715;SDS011;21840;44.920;8.616;2022-10-28T07:57:20;50.33;;;26.42;;
35715;SDS011;21840;44.920;8.616;2022-10-28T07:59:46;45.45;;;25.00;;
35715;SDS011;21840;44.920;8.616;2022-10-28T08:02:16;43.95;;;25.27;;
35715;SDS011;21840;44.920;8.616;2022-10-28T08:04:43;44.60;;;24.92;;
35715;SDS011;21840;44.920;8.616;2022-10-28T08:07:08;51.92;;;26.08;;
35715;SDS011;21840;44.920;8.616;2022-10-28T08:09:34;49.10;;;27.40;;
35715;SDS011;21840;44.920;8.616;2022-10-28T08:12:00;44.85;;;26.10;;
35715;SDS011;21840;44.920;8.616;2022-10-28T08:14:25;50.00;;;27.73;;
35715;SDS011;21840;44.920;8.616;2022-10-28T08:16:51;43.15;;;26.23;;
35715;SDS011;21840;44.920;8.616;2022-10-28T08:19:16;48.03;;;27.90;;
35715;SDS011;21840;44.920;8.616;2022-10-28T08:21:41;46.75;;;28.58;;
35715;SDS011;21840;44.920;8.616;2022-10-28T08:24:08;57.30;;;28.58;;
35715;SDS011;21840;44.920;8.616;2022-10-28T08:26:34;56.40;;;29.75;;
35715;SDS011;21840;44.920;8.616;2022-10-28T08:28:59;54.42;;;29.83;;
35715;SDS011;21840;44.920;8.616;2022-10-28T08:31:25;52.67;;;28.05;;
35715;SDS011;21840;44.920;8.616;2022-10-28T08:33:51;50.40;;;28.95;;
35715;SDS011;21840;44.920;8.616;2022-10-28T08:36:17;51.10;;;29.38;;
35715;SDS011;21840;44.920;8.616;2022-10-28T08:38:43;49.60;;;28.23;;
35715;SDS011;21840;44.920;8.616;2022-10-28T08:49:13;44.97;;;27.50;;
35715;SDS011;21840;44.920;8.616;2022-10-28T08:57:37;60.10;;;30.15;;
35715;SDS011;21840;44.920;8.616;2022-10-28T09:00:24;44.95;;;28.38;;
35715;SDS011;21840;44.920;8.616;2022-10-28T09:02:54;53.70;;;31.00;;
35715;SDS011;21840;44.920;8.616;2022-10-28T09:05:30;57.67;;;30.35;;
35715;SDS011;21840;44.920;8.616;2022-10-28T09:07:55;46.42;;;28.73;;
35715;SDS011;21840;44.920;8.616;2022-10-28T09:10:32;45.38;;;27.92;;
35715;SDS011;21840;44.920;8.616;2022-10-28T09:13:20;46.55;;;29.92;;
35715;SDS011;21840;44.920;8.616;2022-10-28T09:18:38;48.97;;;30.40;;
35715;SDS011;21840;44.920;8.616;2022-10-28T09:21:08;49.33;;;31.27;;
35715;SDS011;21840;44.920;8.616;2022-10-28T09:23:48;52.10;;;30.73;;
35715;SDS011;21840;44.920;8.616;2022-10-28T09:37:33;56.03;;;31.85;;
35715;SDS011;21840;44.920;8.616;2022-10-28T09:40:22;52.35;;;32.40;;
35715;SDS011;21840;44.920;8.616;2022-10-28T09:45:30;59.13;;;34.17;;
35715;SDS011;21840;44.920;8.616;2022-10-28T09:48:02;62.42;;;34.05;;
35715;SDS011;21840;44.920;8.616;2022-10-28T09:50:38;57.60;;;32.95;;
35715;SDS011;21840;44.920;8.616;2022-10-28T09:53:16;63.78;;;36.35;;
35715;SDS011;21840;44.920;8.616;2022-10-28T09:55:58;62.22;;;36.67;;
35715;SDS011;21840;44.920;8.616;2022-10-28T09:58:23;61.25;;;35.70;;
35715;SDS011;21840;44.920;8.616;2022-10-28T10:00:49;61.08;;;34.78;;
35715;SDS011;21840;44.920;8.616;2022-10-28T10:03:15;65.65;;;35.05;;
35715;SDS011;21840;44.920;8.616;2022-10-28T10:05:42;63.25;;;36.13;;
35715;SDS011;21840;44.920;8.616;2022-10-28T10:08:15;62.50;;;36.03;;
35715;SDS011;21840;44.920;8.616;2022-10-28T10:10:58;67.70;;;36.33;;
35715;SDS011;21840;44.920;8.616;2022-10-28T10:13:45;66.57;;;35.22;;
35715;SDS011;21840;44.920;8.616;2022-10-28T10:16:13;65.05;;;34.85;;
35715;SDS011;21840;44.920;8.616;2022-10-28T10:18:42;68.18;;;37.67;;
35715;SDS011;21840;44.920;8.616;2022-10-28T10:21:12;62.50;;;36.30;;
35715;SDS011;21840;44.920;8.616;2022-10-28T10:23:40;68.70;;;36.78;;
35715;SDS011;21840;44.920;8.616;2022-10-28T10:26:06;72.45;;;36.97;;
35715;SDS011;21840;44.920;8.616;2022-10-28T10:28:38;65.72;;;37.85;;
35715;SDS011;21840;44.920;8.616;2022-10-28T10:31:15;72.38;;;37.70;;
35715;SDS011;21840;44.920;8.616;2022-10-28T10:33:47;63.30;;;37.10;;
35715;SDS011;21840;44.920;8.616;2022-10-28T10:36:15;65.28;;;38.03;;
35715;SDS011;21840;44.920;8.616;2022-10-28T10:38:45;77.32;;;37.72;;
35715;SDS011;21840;44.920;8.616;2022-10-28T10:41:31;75.18;;;36.30;;
35715;SDS011;21840;44.920;8.616;2022-10-28T10:49:28;71.55;;;37.72;;
35715;SDS011;21840;44.920;8.616;2022-10-28T10:51:55;70.20;;;38.03;;
35715;SDS011;21840;44.920;8.616;2022-10-28T10:54:28;66.90;;;35.92;;
35715;SDS011;21840;44.920;8.616;2022-10-28T10:57:08;71.55;;;36.78;;
35715;SDS011;21840;44.920;8.616;2022-10-28T10:59:48;70.05;;;35.05;;
35715;SDS011;21840;44.920;8.616;2022-10-28T11:02:19;74.57;;;35.75;;
35715;SDS011;21840;44.920;8.616;2022-10-28T11:05:00;74.00;;;36.17;;
35715;SDS011;21840;44.920;8.616;2022-10-28T11:07:31;72.13;;;36.90;;
35715;SDS011;21840;44.920;8.616;2022-10-28T11:09:57;64.70;;;34.97;;
35715;SDS011;21840;44.920;8.616;2022-10-28T11:17:40;70.95;;;35.05;;
35715;SDS011;21840;44.920;8.616;2022-10-28T11:20:38;68.03;;;32.83;;
35715;SDS011;21840;44.920;8.616;2022-10-28T11:23:18;64.00;;;33.15;;
35715;SDS011;21840;44.920;8.616;2022-10-28T11:25:51;63.97;;;34.97;;
35715;SDS011;21840;44.920;8.616;2022-10-28T11:34:05;67.47;;;33.63;;
35715;SDS011;21840;44.920;8.616;2022-10-28T11:39:26;68.53;;;34.30;;
35715;SDS011;21840;44.920;8.616;2022-10-28T12:05:51;64.82;;;30.40;;
35715;SDS011;21840;44.920;8.616;2022-10-28T12:19:11;60.70;;;30.23;;
35715;SDS011;21840;44.920;8.616;2022-10-28T12:24:47;61.20;;;27.50;;
35715;SDS011;21840;44.920;8.616;2022-10-28T12:27:22;46.28;;;25.20;;
35715;SDS011;21840;44.920;8.616;2022-10-28T12:29:54;54.95;;;26.73;;
35715;SDS011;21840;44.920;8.616;2022-10-28T12:32:28;54.00;;;27.00;;
35715;SDS011;21840;44.920;8.616;2022-10-28T12:37:40;44.53;;;22.73;;
35715;SDS011;21840;44.920;8.616;2022-10-28T12:40:20;45.50;;;21.80;;
35715;SDS011;21840;44.920;8.616;2022-10-28T12:42:54;47.42;;;22.08;;
35715;SDS011;21840;44.920;8.616;2022-10-28T12:45:25;51.00;;;22.50;;
35715;SDS011;21840;44.920;8.616;2022-10-28T12:47:58;48.27;;;23.57;;
35715;SDS011;21840;44.920;8.616;2022-10-28T12:50:39;55.20;;;24.38;;
35715;SDS011;21840;44.920;8.616;2022-10-28T12:56:00;56.47;;;23.58;;
35715;SDS011;21840;44.920;8.616;2022-10-28T13:01:15;42.35;;;23.20;;
35715;SDS011;21840;44.920;8.616;2022-10-28T13:03:43;47.20;;;21.17;;
35715;SDS011;21840;44.920;8.616;2022-10-28T13:22:44;32.55;;;15.65;;
35715;SDS011;21840;44.920;8.616;2022-10-28T13:27:54;26.70;;;14.52;;
35715;SDS011;21840;44.920;8.616;2022-10-28T13:30:21;30.38;;;14.13;;
35715;SDS011;21840;44.920;8.616;2022-10-28T13:32:48;35.22;;;13.85;;
35715;SDS011;21840;44.920;8.616;2022-10-28T13:35:25;33.00;;;13.40;;
35715;SDS011;21840;44.920;8.616;2022-10-28T13:37:52;31.58;;;11.35;;
35715;SDS011;21840;44.920;8.616;2022-10-28T13:40:20;27.45;;;13.02;;
35715;SDS011;21840;44.920;8.616;2022-10-28T13:42:46;29.42;;;12.30;;
35715;SDS011;21840;44.920;8.616;2022-10-28T13:56:34;33.63;;;15.25;;
35715;SDS011;21840;44.920;8.616;2022-10-28T14:07:19;36.85;;;15.57;;
35715;SDS011;21840;44.920;8.616;2022-10-28T14:09:51;31.15;;;15.95;;
35715;SDS011;21840;44.920;8.616;2022-10-28T14:12:29;42.80;;;17.58;;
35715;SDS011;21840;44.920;8.616;2022-10-28T14:15:01;33.58;;;16.15;;
35715;SDS011;21840;44.920;8.616;2022-10-28T14:17:40;31.70;;;15.80;;
35715;SDS011;21840;44.920;8.616;2022-10-28T14:20:28;38.83;;;16.30;;
35715;SDS011;21840;44.920;8.616;2022-10-28T14:22:54;38.10;;;18.02;;
35715;SDS011;21840;44.920;8.616;2022-10-28T14:33:40;34.17;;;17.33;;
35715;SDS011;21840;44.920;8.616;2022-10-28T14:44:27;34.58;;;16.58;;
35715;SDS011;21840;44.920;8.616;2022-10-28T14:52:25;42.10;;;18.10;;
35715;SDS011;21840;44.920;8.616;2022-10-28T14:54:56;32.13;;;16.80;;
35715;SDS011;21840;44.920;8.616;2022-10-28T14:57:27;31.13;;;16.85;;
35715;SDS011;21840;44.920;8.616;2022-10-28T14:59:54;30.65;;;16.13;;
35715;SDS011;21840;44.920;8.616;2022-10-28T15:02:24;40.55;;;16.23;;
35715;SDS011;21840;44.920;8.616;2022-10-28T15:04:56;35.17;;;15.95;;
35715;SDS011;21840;44.920;8.616;2022-10-28T15:07:27;34.33;;;16.33;;
35715;SDS011;21840;44.920;8.616;2022-10-28T15:09:53;36.33;;;15.13;;
35715;SDS011;21840;44.920;8.616;2022-10-28T15:12:21;27.80;;;15.55;;
35715;SDS011;21840;44.920;8.616;2022-10-28T15:14:51;37.55;;;15.30;;
35715;SDS011;21840;44.920;8.616;2022-10-28T15:20:09;36.55;;;16.45;;
35715;SDS011;21840;44.920;8.616;2022-10-28T15:22:43;34.15;;;15.02;;
35715;SDS011;21840;44.920;8.616;2022-10-28T15:25:13;32.15;;;15.95;;
35715;SDS011;21840;44.920;8.616;2022-10-28T15:27:42;30.63;;;15.85;;
35715;SDS011;21840;44.920;8.616;2022-10-28T15:32:47;31.00;;;16.65;;
35715;SDS011;21840;44.920;8.616;2022-10-28T15:37:55;35.70;;;15.85;;
35715;SDS011;21840;44.920;8.616;2022-10-28T15:40:27;42.65;;;14.93;;
35715;SDS011;21840;44.920;8.616;2022-10-28T15:42:57;34.70;;;14.63;;
35715;SDS011;21840;44.920;8.616;2022-10-28T15:45:26;47.38;;;14.90;;
35715;SDS011;21840;44.920;8.616;2022-10-28T15:47:57;31.80;;;14.20;;
35715;SDS011;21840;44.920;8.616;2022-10-28T15:55:36;28.35;;;13.60;;
35715;SDS011;21840;44.920;8.616;2022-10-28T15:58:28;29.20;;;14.77;;
35715;SDS011;21840;44.920;8.616;2022-10-28T16:00:55;39.88;;;14.77;;
35715;SDS011;21840;44.920;8.616;2022-10-28T16:08:57;34.90;;;17.95;;
35715;SDS011;21840;44.920;8.616;2022-10-28T16:11:24;47.63;;;17.50;;
35715;SDS011;21840;44.920;8.616;2022-10-28T16:13:50;38.92;;;18.35;;
35715;SDS011;21840;44.920;8.616;2022-10-28T16:16:23;44.33;;;18.73;;
35715;SDS011;21840;44.920;8.616;2022-10-28T16:19:38;40.65;;;19.45;;
35715;SDS011;21840;44.920;8.616;2022-10-28T16:21:47;39.10;;;18.73;;
35715;SDS011;21840;44.920;8.616;2022-10-28T16:24:13;47.72;;;19.85;;
35715;SDS011;21840;44.920;8.616;2022-10-28T16:26:38;50.22;;;21.67;;
35715;SDS011;21840;44.920;8.616;2022-10-28T16:29:06;41.47;;;20.42;;
35715;SDS011;21840;44.920;8.616;2022-10-28T16:31:32;39.55;;;19.23;;
35715;SDS011;21840;44.920;8.616;2022-10-28T16:33:58;43.58;;;21.25;;
35715;SDS011;21840;44.920;8.616;2022-10-28T16:36:24;35.20;;;21.88;;
35715;SDS011;21840;44.920;8.616;2022-10-28T16:38:52;43.95;;;20.85;;
35715;SDS011;21840;44.920;8.616;2022-10-28T16:41:18;43.03;;;19.90;;
35715;SDS011;21840;44.920;8.616;2022-10-28T16:43:44;32.88;;;18.38;;
35715;SDS011;21840;44.920;8.616;2022-10-28T16:46:10;44.35;;;19.42;;
35715;SDS011;21840;44.920;8.616;2022-10-28T16:48:37;39.28;;;19.13;;
35715;SDS011;21840;44.920;8.616;2022-10-28T16:51:15;42.25;;;19.40;;
35715;SDS011;21840;44.920;8.616;2022-10-28T16:53:41;44.72;;;19.25;;
35715;SDS011;21840;44.920;8.616;2022-10-28T16:56:14;40.47;;;19.08;;
35715;SDS011;21840;44.920;8.616;2022-10-28T16:58:40;44.78;;;18.13;;
35715;SDS011;21840;44.920;8.616;2022-10-28T17:01:06;42.60;;;18.75;;
35715;SDS011;21840;44.920;8.616;2022-10-28T17:03:33;38.50;;;18.77;;
35715;SDS011;21840;44.920;8.616;2022-10-28T17:05:59;40.22;;;18.65;;
35715;SDS011;21840;44.920;8.616;2022-10-28T17:08:25;40.10;;;19.48;;
35715;SDS011;21840;44.920;8.616;2022-10-28T17:10:50;42.72;;;17.80;;
35715;SDS011;21840;44.920;8.616;2022-10-28T17:13:15;44.33;;;17.33;;
35715;SDS011;21840;44.920;8.616;2022-10-28T17:15:41;39.80;;;17.98;;
35715;SDS011;21840;44.920;8.616;2022-10-28T17:18:08;43.17;;;18.55;;
35715;SDS011;21840;44.920;8.616;2022-10-28T17:20:35;42.00;;;17.75;;
35715;SDS011;21840;44.920;8.616;2022-10-28T17:23:00;43.50;;;18.52;;
35715;SDS011;21840;44.920;8.616;2022-10-28T17:25:26;43.53;;;18.02;;
35715;SDS011;21840;44.920;8.616;2022-10-28T17:27:52;36.67;;;18.80;;
35715;SDS011;21840;44.920;8.616;2022-10-28T17:30:18;42.40;;;18.45;;
35715;SDS011;21840;44.920;8.616;2022-10-28T17:32:44;38.85;;;17.45;;
35715;SDS011;21840;44.920;8.616;2022-10-28T17:35:13;43.88;;;18.98;;
35715;SDS011;21840;44.920;8.616;2022-10-28T17:37:39;57.75;;;21.27;;
35715;SDS011;21840;44.920;8.616;2022-10-28T17:40:05;38.45;;;17.65;;
35715;SDS011;21840;44.920;8.616;2022-10-28T17:42:35;32.63;;;16.08;;
35715;SDS011;21840;44.920;8.616;2022-10-28T17:45:01;37.28;;;17.13;;
35715;SDS011;21840;44.920;8.616;2022-10-28T17:47:27;47.65;;;17.65;;
35715;SDS011;21840;44.920;8.616;2022-10-28T17:49:53;28.38;;;14.65;;
35715;SDS011;21840;44.920;8.616;2022-10-28T17:52:19;43.17;;;15.57;;
35715;SDS011;21840;44.920;8.616;2022-10-28T17:54:45;40.60;;;15.63;;
35715;SDS011;21840;44.920;8.616;2022-10-28T17:57:10;34.13;;;14.35;;
35715;SDS011;21840;44.920;8.616;2022-10-28T17:59:36;41.55;;;14.23;;
35715;SDS011;21840;44.920;8.616;2022-10-28T18:02:02;41.47;;;13.32;;
35715;SDS011;21840;44.920;8.616;2022-10-28T18:04:27;31.70;;;12.70;;
35715;SDS011;21840;44.920;8.616;2022-10-28T18:06:54;30.13;;;13.13;;